Terminal Aerodrome Forecast
Issued by NWS

Home | Current Version | Previous Version | Text Only | Print | Product List | Glossary On
Versions: 1 2 3 4 5 6 7 8 9 10 11 12
000
FTUS42 TJSJ 232339
TAFISX
TAF
TISX 232339Z 2400/2424 10006KT P6SM VCSH SCT020 BKN100
     FM240900 11010KT P6SM VCSH SCT020 BKN100
      AMD NOT SKED=

USA.gov is the U.S. government's official web portal to all federal, state and local government web resources and services.